createdAt,value
2023-04-27T00:00:36.804Z,3.53
2023-04-27T00:03:06.129Z,3.49
2023-04-27T00:05:37.267Z,3.49
2023-04-27T00:08:03.915Z,3.49
2023-04-27T00:10:30.474Z,3.41
2023-04-27T00:12:57.026Z,3.36
2023-04-27T00:15:23.678Z,3.31
2023-04-27T00:17:50.310Z,3.34
2023-04-27T00:20:17.133Z,3.30
2023-04-27T00:22:43.636Z,3.24
2023-04-27T00:25:10.268Z,3.17
2023-04-27T00:27:36.694Z,3.06
2023-04-27T00:30:03.581Z,3.05
2023-04-27T00:32:30.258Z,3.01
2023-04-27T00:34:56.830Z,3.02
2023-04-27T00:37:25.780Z,2.97
2023-04-27T00:39:52.250Z,2.92
2023-04-27T00:42:19.845Z,2.89
2023-04-27T00:44:47.173Z,2.91
2023-04-27T00:47:14.239Z,2.90
2023-04-27T00:49:41.377Z,2.83
2023-04-27T00:52:08.000Z,2.82
2023-04-27T00:54:35.015Z,2.82
2023-04-27T00:57:02.328Z,2.78
2023-04-27T00:59:29.277Z,2.76
2023-04-27T01:01:56.410Z,2.79
2023-04-27T01:04:23.657Z,2.87
2023-04-27T01:06:50.385Z,2.74
2023-04-27T01:09:19.756Z,2.68
2023-04-27T01:11:47.195Z,2.66
2023-04-27T01:14:13.827Z,2.61
2023-04-27T01:16:40.882Z,2.63
2023-04-27T01:19:08.193Z,2.58
2023-04-27T01:21:34.917Z,2.57
2023-04-27T01:24:01.564Z,2.57
2023-04-27T01:26:28.227Z,2.56
2023-04-27T01:28:54.892Z,2.49
2023-04-27T01:31:21.760Z,2.46
2023-04-27T01:33:48.410Z,2.39
2023-04-27T01:36:15.095Z,2.37
2023-04-27T01:38:42.432Z,2.36
2023-04-27T01:41:09.401Z,2.28
2023-04-27T01:43:39.311Z,2.30
2023-04-27T01:46:14.244Z,2.28
2023-04-27T01:48:41.781Z,2.28
2023-04-27T01:51:08.403Z,2.22
2023-04-27T01:53:35.218Z,2.19
2023-04-27T01:56:01.914Z,2.18
2023-04-27T01:58:28.605Z,2.18
2023-04-27T02:00:55.503Z,2.14
2023-04-27T02:03:22.427Z,2.07
2023-04-27T02:05:49.235Z,2.10
2023-04-27T02:08:15.801Z,2.05
2023-04-27T02:10:42.407Z,2.07
2023-04-27T02:13:09.881Z,2.10
2023-04-27T02:15:36.637Z,2.04
2023-04-27T02:18:04.955Z,1.99
2023-04-27T02:20:32.865Z,1.95
2023-04-27T02:22:59.785Z,1.91
2023-04-27T02:25:26.917Z,1.86
2023-04-27T02:27:53.919Z,1.82
2023-04-27T02:30:21.445Z,1.85
2023-04-27T02:32:48.725Z,1.78
2023-04-27T02:35:15.578Z,1.84
2023-04-27T02:37:42.332Z,1.82
2023-04-27T02:40:09.646Z,1.80
2023-04-27T02:42:38.229Z,1.78
2023-04-27T02:45:07.149Z,1.80
2023-04-27T02:47:34.365Z,1.83
2023-04-27T02:50:01.632Z,1.78
2023-04-27T02:52:28.328Z,1.78
2023-04-27T02:54:57.721Z,1.78
2023-04-27T02:57:24.385Z,1.74
2023-04-27T02:59:51.082Z,1.73
2023-04-27T03:02:17.780Z,1.66
2023-04-27T03:04:44.685Z,1.57
2023-04-27T03:07:13.021Z,1.55
2023-04-27T03:09:39.650Z,1.58
2023-04-27T03:12:06.331Z,1.53
2023-04-27T03:14:33.027Z,1.61
2023-04-27T03:17:00.675Z,1.61
2023-04-27T03:19:27.573Z,1.61
2023-04-27T03:21:54.226Z,1.61
2023-04-27T03:24:21.923Z,1.62
2023-04-27T03:26:48.927Z,1.57
2023-04-27T03:29:15.847Z,1.56
2023-04-27T03:31:42.728Z,1.55
2023-04-27T03:34:09.381Z,1.52
2023-04-27T03:36:35.938Z,1.52
2023-04-27T03:39:03.180Z,1.52
2023-04-27T03:41:29.796Z,1.49
2023-04-27T03:43:56.573Z,1.46
2023-04-27T03:46:23.280Z,1.52
2023-04-27T03:48:49.967Z,1.52
2023-04-27T03:51:17.875Z,1.57
2023-04-27T03:53:44.540Z,1.64
2023-04-27T03:56:11.305Z,1.58
2023-04-27T03:58:38.005Z,1.61
2023-04-27T04:01:04.759Z,1.73
2023-04-27T04:03:31.578Z,1.78
2023-04-27T04:05:58.322Z,1.76
2023-04-27T04:08:24.921Z,1.75
2023-04-27T04:10:51.593Z,1.73
2023-04-27T04:13:18.294Z,1.85
2023-04-27T04:15:45.428Z,1.89
2023-04-27T04:18:12.101Z,1.96
2023-04-27T04:20:38.678Z,2.00
2023-04-27T04:23:05.352Z,2.03
2023-04-27T04:25:32.321Z,2.05
2023-04-27T04:27:59.130Z,2.16
2023-04-27T04:30:26.326Z,2.27
2023-04-27T04:32:53.085Z,2.35
2023-04-27T04:35:20.025Z,2.41
2023-04-27T04:37:46.853Z,2.47
2023-04-27T04:40:14.090Z,2.53
2023-04-27T04:42:41.445Z,2.57
2023-04-27T04:45:08.522Z,2.58
2023-04-27T04:47:35.231Z,2.65
2023-04-27T04:50:02.207Z,2.72
2023-04-27T04:52:29.093Z,2.79
2023-04-27T04:54:55.686Z,2.80
2023-04-27T04:57:22.385Z,2.85
2023-04-27T04:59:48.998Z,2.86
2023-04-27T05:02:15.828Z,2.94
2023-04-27T05:04:42.577Z,3.01
2023-04-27T05:07:14.050Z,3.09
2023-04-27T05:09:41.470Z,3.15
2023-04-27T05:12:08.145Z,3.12
2023-04-27T05:14:35.179Z,3.14
2023-04-27T05:17:05.013Z,3.11
2023-04-27T05:19:31.829Z,3.14
2023-04-27T05:21:59.038Z,3.17
2023-04-27T05:24:27.277Z,3.23
2023-04-27T05:26:55.003Z,3.35
2023-04-27T05:29:22.447Z,3.44
2023-04-27T05:31:49.553Z,3.51
2023-04-27T05:34:16.605Z,3.58
2023-04-27T05:36:43.317Z,3.68
2023-04-27T05:39:10.098Z,3.80
2023-04-27T05:41:36.800Z,3.96
2023-04-27T05:44:03.445Z,4.11
2023-04-27T05:46:32.989Z,4.44
2023-04-27T05:48:59.812Z,4.61
2023-04-27T05:51:27.157Z,4.80
2023-04-27T05:53:55.444Z,5.07
2023-04-27T05:56:22.351Z,5.23
2023-04-27T05:58:48.840Z,5.28
2023-04-27T06:01:15.437Z,5.33
2023-04-27T06:03:42.159Z,5.35
2023-04-27T06:06:08.935Z,5.45
2023-04-27T06:08:37.653Z,5.57
2023-04-27T06:11:04.280Z,5.57
2023-04-27T06:13:31.694Z,5.62
2023-04-27T06:15:58.180Z,5.59
2023-04-27T06:18:24.876Z,5.61
2023-04-27T06:20:53.493Z,5.70
2023-04-27T06:23:20.057Z,5.76
2023-04-27T06:25:46.739Z,5.81
2023-04-27T06:28:13.377Z,5.62
2023-04-27T06:30:39.997Z,5.58
2023-04-27T06:33:06.757Z,5.55
2023-04-27T06:35:33.637Z,5.63
2023-04-27T06:38:00.940Z,5.83
2023-04-27T06:40:27.843Z,5.97
2023-04-27T06:42:54.619Z,5.99
2023-04-27T06:45:24.127Z,6.12
2023-04-27T06:47:50.899Z,6.15
2023-04-27T06:50:17.774Z,6.13
2023-04-27T06:52:47.359Z,6.03
2023-04-27T06:55:14.044Z,6.22
2023-04-27T06:57:40.725Z,6.16
2023-04-27T07:00:08.950Z,6.22
2023-04-27T07:02:35.872Z,6.32
2023-04-27T07:05:02.770Z,6.39
2023-04-27T07:07:29.628Z,6.45
2023-04-27T07:09:56.351Z,6.40
2023-04-27T07:12:22.930Z,6.47
2023-04-27T07:14:51.038Z,6.57
2023-04-27T07:17:17.704Z,6.55
2023-04-27T07:19:44.374Z,6.74
2023-04-27T07:22:11.800Z,6.78
2023-04-27T07:24:38.422Z,6.81
2023-04-27T07:27:05.126Z,6.87
2023-04-27T07:29:32.394Z,6.93
2023-04-27T07:32:04.837Z,6.96
2023-04-27T07:34:41.099Z,7.02
2023-04-27T07:37:11.921Z,7.19
2023-04-27T07:39:38.605Z,7.33
2023-04-27T07:42:05.541Z,7.46
2023-04-27T07:44:32.282Z,7.59
2023-04-27T07:46:58.964Z,7.62
2023-04-27T07:49:26.470Z,7.72
2023-04-27T07:51:53.144Z,7.80
2023-04-27T07:54:19.857Z,7.82
2023-04-27T07:56:53.761Z,8.02
2023-04-27T07:59:20.399Z,8.16
2023-04-27T08:01:47.525Z,8.07
2023-04-27T08:04:17.859Z,8.26
2023-04-27T08:06:46.859Z,8.50
2023-04-27T08:09:17.668Z,8.69
2023-04-27T08:11:44.265Z,8.54
2023-04-27T08:14:13.773Z,8.71
2023-04-27T08:16:41.167Z,8.82
2023-04-27T08:19:09.226Z,8.97
2023-04-27T08:21:36.732Z,9.06
2023-04-27T08:24:03.637Z,8.95
2023-04-27T08:26:30.414Z,9.21
2023-04-27T08:28:57.610Z,9.52
2023-04-27T08:31:24.751Z,9.42
2023-04-27T08:33:52.622Z,9.18
2023-04-27T08:36:24.370Z,9.20
2023-04-27T08:39:03.396Z,8.99
2023-04-27T08:41:32.017Z,9.28
2023-04-27T08:44:00.472Z,9.38
2023-04-27T08:46:27.266Z,9.22
2023-04-27T08:48:54.447Z,9.17
2023-04-27T08:51:27.502Z,9.08
2023-04-27T08:53:56.920Z,9.05
2023-04-27T08:56:27.664Z,9.04
2023-04-27T08:58:58.777Z,9.42
2023-04-27T09:01:27.599Z,9.77
2023-04-27T09:03:59.064Z,9.86
2023-04-27T09:06:36.389Z,9.60
2023-04-27T09:09:04.295Z,9.59
2023-04-27T09:11:36.064Z,9.72
2023-04-27T09:14:15.712Z,9.60
2023-04-27T09:16:42.861Z,9.76
2023-04-27T09:19:09.600Z,9.64
2023-04-27T09:21:36.358Z,9.87
2023-04-27T09:24:13.566Z,9.94
2023-04-27T09:26:42.194Z,10.04
2023-04-27T09:29:09.206Z,10.15
2023-04-27T09:31:36.762Z,10.30
2023-04-27T09:34:04.816Z,10.29
2023-04-27T09:36:32.762Z,9.97
2023-04-27T09:39:06.060Z,9.93
2023-04-27T09:41:33.439Z,10.18
2023-04-27T09:44:05.130Z,10.20
2023-04-27T09:46:33.745Z,10.57
2023-04-27T09:49:01.413Z,10.69
2023-04-27T09:51:27.958Z,10.48
2023-04-27T09:53:57.624Z,10.82
2023-04-27T09:56:26.062Z,10.89
2023-04-27T09:59:01.882Z,11.30
2023-04-27T10:01:41.921Z,10.91
2023-04-27T10:04:20.556Z,10.69
2023-04-27T10:07:00.637Z,10.24
2023-04-27T10:09:37.574Z,9.99
2023-04-27T10:12:33.540Z,9.91
2023-04-27T10:15:00.853Z,10.13
2023-04-27T10:17:32.244Z,10.26
2023-04-27T10:20:03.124Z,9.96
2023-04-27T10:22:41.969Z,9.79
2023-04-27T10:25:22.196Z,9.70
2023-04-27T10:28:01.996Z,9.57
2023-04-27T10:30:32.625Z,9.91
2023-04-27T10:33:07.662Z,9.93
2023-04-27T10:35:41.136Z,9.90
2023-04-27T10:38:16.585Z,10.42
2023-04-27T10:41:05.894Z,10.00
2023-04-27T10:43:35.039Z,10.20
2023-04-27T10:46:16.414Z,10.20
2023-04-27T10:48:44.695Z,9.99
2023-04-27T10:51:16.686Z,10.21
2023-04-27T10:53:43.491Z,10.55
2023-04-27T10:56:10.598Z,11.20
2023-04-27T11:01:08.844Z,10.55
2023-04-27T11:03:36.422Z,11.21
2023-04-27T11:06:05.737Z,11.01
2023-04-27T11:08:36.792Z,10.72
2023-04-27T11:11:05.130Z,10.19
2023-04-27T11:13:34.958Z,10.03
2023-04-27T11:16:01.767Z,10.35
2023-04-27T11:18:33.851Z,10.86
2023-04-27T11:21:10.690Z,10.78
2023-04-27T11:23:38.757Z,10.97
2023-04-27T11:26:33.970Z,10.59
2023-04-27T11:29:08.085Z,10.31
2023-04-27T11:31:52.187Z,10.44
2023-04-27T11:34:26.652Z,10.93
2023-04-27T11:37:03.760Z,10.80
2023-04-27T11:39:41.743Z,10.98
2023-04-27T11:42:22.162Z,11.13
2023-04-27T11:45:02.818Z,11.02
2023-04-27T11:47:33.877Z,10.98
2023-04-27T11:50:05.054Z,11.34
2023-04-27T11:52:36.301Z,10.93
2023-04-27T11:55:04.179Z,11.31
2023-04-27T11:57:33.043Z,11.00
2023-04-27T12:00:01.666Z,10.61
2023-04-27T12:02:34.119Z,10.34
2023-04-27T12:05:01.503Z,10.21
2023-04-27T12:07:30.804Z,10.59
2023-04-27T12:09:58.953Z,10.69
2023-04-27T12:12:27.518Z,10.66
2023-04-27T12:14:54.379Z,10.47
2023-04-27T12:17:21.307Z,10.79
2023-04-27T12:19:48.021Z,10.88
2023-04-27T12:22:14.692Z,11.24
2023-04-27T12:24:41.397Z,11.50
2023-04-27T12:27:08.440Z,11.51
2023-04-27T12:29:35.108Z,11.42
2023-04-27T12:32:04.065Z,11.18
2023-04-27T12:34:30.903Z,11.22
2023-04-27T12:37:00.326Z,11.01
2023-04-27T12:39:27.117Z,11.41
2023-04-27T12:42:00.291Z,11.87
2023-04-27T12:44:27.262Z,11.06
2023-04-27T12:46:55.135Z,11.36
2023-04-27T12:49:27.335Z,11.15
2023-04-27T12:51:54.268Z,11.32
2023-04-27T12:54:23.909Z,11.10
2023-04-27T12:56:51.245Z,11.43
2023-04-27T12:59:18.125Z,11.52
2023-04-27T13:01:51.748Z,11.78
2023-04-27T13:04:20.992Z,11.61
2023-04-27T13:06:48.330Z,12.27
2023-04-27T13:09:15.542Z,12.03
2023-04-27T13:11:42.333Z,11.91
2023-04-27T13:14:09.910Z,12.21
2023-04-27T13:16:36.728Z,11.54
2023-04-27T13:19:03.430Z,11.05
2023-04-27T13:21:30.367Z,10.95
2023-04-27T13:23:59.535Z,11.39
2023-04-27T13:26:26.958Z,11.68
2023-04-27T13:28:53.676Z,11.95
2023-04-27T13:31:20.427Z,11.62
2023-04-27T13:33:47.125Z,11.57
2023-04-27T13:36:14.243Z,11.63
2023-04-27T13:38:42.791Z,11.33
2023-04-27T13:41:11.144Z,11.65
2023-04-27T13:43:37.713Z,12.40
2023-04-27T13:46:08.666Z,11.49
2023-04-27T13:48:35.314Z,11.94
2023-04-27T13:51:02.012Z,11.55
2023-04-27T13:53:28.622Z,11.51
2023-04-27T13:55:56.020Z,11.32
2023-04-27T13:58:26.234Z,11.83
2023-04-27T14:00:53.610Z,12.15
2023-04-27T14:03:20.930Z,12.42
2023-04-27T14:05:49.055Z,12.53
2023-04-27T14:08:16.035Z,12.16
2023-04-27T14:10:42.716Z,12.69
2023-04-27T14:13:09.265Z,12.51
2023-04-27T14:15:38.697Z,12.22
2023-04-27T14:18:06.199Z,11.87
2023-04-27T14:20:34.480Z,11.42
2023-04-27T14:23:01.341Z,11.94
2023-04-27T14:25:32.560Z,12.19
2023-04-27T14:28:03.500Z,13.09
2023-04-27T14:30:33.540Z,13.66
2023-04-27T14:33:00.306Z,12.88
2023-04-27T14:35:28.023Z,12.37
2023-04-27T14:37:58.556Z,11.82
2023-04-27T14:40:27.700Z,11.18
2023-04-27T14:42:54.272Z,11.14
2023-04-27T14:45:21.714Z,10.93
2023-04-27T14:47:52.913Z,11.18
2023-04-27T14:50:21.885Z,11.13
2023-04-27T14:52:50.871Z,11.94
2023-04-27T14:55:20.099Z,11.57
2023-04-27T14:57:49.392Z,11.18
2023-04-27T15:00:19.018Z,10.91
2023-04-27T15:02:48.631Z,13.26
2023-04-27T15:05:18.502Z,14.20
2023-04-27T15:07:47.724Z,14.53
2023-04-27T15:10:15.448Z,13.27
2023-04-27T15:12:44.438Z,12.21
2023-04-27T15:15:12.876Z,11.77
2023-04-27T15:17:39.615Z,11.85
2023-04-27T15:20:06.926Z,11.43
2023-04-27T15:22:33.708Z,11.19
2023-04-27T15:25:00.332Z,11.10
2023-04-27T15:27:26.900Z,11.17
2023-04-27T15:29:58.159Z,10.80
2023-04-27T15:32:29.991Z,10.75
2023-04-27T15:35:00.053Z,10.53
2023-04-27T15:37:28.183Z,10.73
2023-04-27T15:39:54.934Z,10.43
2023-04-27T15:42:21.864Z,10.54
2023-04-27T15:44:51.811Z,10.27
2023-04-27T15:47:18.547Z,10.26
2023-04-27T15:49:57.011Z,10.18
2023-04-27T15:52:24.422Z,10.09
2023-04-27T15:54:51.126Z,10.64
2023-04-27T15:57:18.531Z,10.44
2023-04-27T15:59:45.191Z,9.87
2023-04-27T16:02:13.208Z,9.93
2023-04-27T16:04:42.618Z,9.88
2023-04-27T16:07:10.699Z,12.08
2023-04-27T16:09:37.738Z,13.97
2023-04-27T16:12:07.256Z,12.45
2023-04-27T16:14:36.094Z,12.15
2023-04-27T16:17:06.006Z,11.91
2023-04-27T16:19:35.117Z,13.96
2023-04-27T16:24:42.407Z,10.70
2023-04-27T16:27:11.781Z,11.75
2023-04-27T16:29:41.073Z,11.75
2023-04-27T16:32:21.999Z,12.62
2023-04-27T16:34:48.918Z,11.58
2023-04-27T16:37:15.930Z,10.50
2023-04-27T16:39:42.556Z,10.06
2023-04-27T16:42:09.818Z,10.09
2023-04-27T16:44:37.970Z,9.62
2023-04-27T16:47:04.835Z,9.27
2023-04-27T16:49:31.561Z,8.96
2023-04-27T16:51:58.286Z,8.88
2023-04-27T16:54:24.938Z,8.77
2023-04-27T16:56:55.230Z,8.84
2023-04-27T16:59:24.319Z,8.80
2023-04-27T17:01:51.337Z,8.70
2023-04-27T17:04:20.221Z,8.53
2023-04-27T17:06:49.570Z,8.55
2023-04-27T17:09:17.770Z,8.51
2023-04-27T17:11:44.549Z,8.50
2023-04-27T17:14:11.215Z,8.26
2023-04-27T17:16:37.846Z,8.25
2023-04-27T17:19:13.329Z,8.15
2023-04-27T17:21:40.131Z,8.08
2023-04-27T17:24:07.034Z,7.94
2023-04-27T17:26:33.656Z,7.80
2023-04-27T17:29:01.354Z,7.68
2023-04-27T17:31:30.076Z,7.46
2023-04-27T17:33:56.705Z,7.37
2023-04-27T17:36:23.325Z,7.48
2023-04-27T17:38:49.960Z,7.39
2023-04-27T17:41:16.556Z,7.39
2023-04-27T17:43:43.293Z,7.29
2023-04-27T17:46:10.162Z,7.21
2023-04-27T17:48:37.469Z,7.13
2023-04-27T17:51:06.914Z,7.07
2023-04-27T17:53:42.560Z,7.03
2023-04-27T17:56:09.002Z,7.08
2023-04-27T17:58:35.563Z,7.08
2023-04-27T18:01:02.136Z,7.07
2023-04-27T18:03:28.929Z,7.15
2023-04-27T18:05:57.162Z,7.02
2023-04-27T18:08:23.772Z,6.96
2023-04-27T18:10:50.798Z,6.84
2023-04-27T18:13:17.391Z,6.92
2023-04-27T18:15:44.106Z,6.89
2023-04-27T18:18:11.999Z,6.99
2023-04-27T18:20:38.615Z,6.88
2023-04-27T18:23:05.233Z,6.88
2023-04-27T18:25:32.123Z,6.92
2023-04-27T18:28:00.902Z,6.86
2023-04-27T18:30:30.855Z,6.89
2023-04-27T18:32:57.537Z,6.88
2023-04-27T18:35:26.630Z,6.83
2023-04-27T18:37:56.294Z,6.87
2023-04-27T18:40:27.724Z,6.78
2023-04-27T18:42:54.394Z,6.78
2023-04-27T18:45:21.383Z,6.83
2023-04-27T18:47:48.090Z,6.93
2023-04-27T18:50:14.893Z,6.87
2023-04-27T18:52:41.764Z,6.77
2023-04-27T18:55:37.040Z,6.76
2023-04-27T18:58:03.664Z,6.84
2023-04-27T19:00:35.997Z,6.86
2023-04-27T19:03:08.170Z,6.85
2023-04-27T19:05:42.950Z,6.79
2023-04-27T19:08:10.323Z,6.67
2023-04-27T19:10:41.589Z,6.70
2023-04-27T19:13:08.320Z,6.73
2023-04-27T19:15:35.125Z,6.74
2023-04-27T19:18:10.493Z,6.81
2023-04-27T19:20:41.537Z,6.75
2023-04-27T19:23:12.639Z,6.73
2023-04-27T19:25:40.373Z,6.76
2023-04-27T19:28:07.099Z,6.74
2023-04-27T19:30:34.193Z,6.66
2023-04-27T19:33:01.363Z,6.70
2023-04-27T19:35:28.138Z,6.57
2023-04-27T19:37:54.794Z,6.63
2023-04-27T19:40:21.578Z,6.60
2023-04-27T19:42:48.391Z,6.58
2023-04-27T19:45:15.456Z,6.51
2023-04-27T19:47:42.207Z,6.54
2023-04-27T19:50:09.307Z,6.52
2023-04-27T19:52:38.253Z,6.55
2023-04-27T19:55:05.212Z,6.48
2023-04-27T19:57:32.674Z,6.47
2023-04-27T19:59:59.649Z,6.43
2023-04-27T20:02:26.321Z,6.37
2023-04-27T20:04:56.503Z,6.31
2023-04-27T20:07:23.556Z,6.36
2023-04-27T20:09:50.400Z,6.35
2023-04-27T20:12:40.297Z,6.39
2023-04-27T20:15:05.341Z,6.31
2023-04-27T20:17:32.158Z,6.23
2023-04-27T20:19:58.847Z,6.24
2023-04-27T20:22:25.752Z,6.25
2023-04-27T20:24:52.378Z,6.28
2023-04-27T20:27:19.008Z,6.25
2023-04-27T20:29:47.313Z,6.27
2023-04-27T20:32:14.006Z,6.30
2023-04-27T20:34:40.720Z,6.27
2023-04-27T20:37:07.602Z,6.24
2023-04-27T20:39:35.086Z,6.22
2023-04-27T20:42:01.740Z,6.22
2023-04-27T20:44:28.384Z,6.16
2023-04-27T20:46:55.000Z,6.16
2023-04-27T20:49:31.936Z,6.23
2023-04-27T20:52:01.659Z,6.22
2023-04-27T20:54:28.454Z,6.19
2023-04-27T20:56:55.093Z,6.18
2023-04-27T20:59:21.724Z,6.17
2023-04-27T21:01:48.532Z,6.15
2023-04-27T21:04:41.977Z,6.13
2023-04-27T21:07:08.716Z,5.98
2023-04-27T21:09:36.315Z,5.92
2023-04-27T21:12:02.951Z,5.87
2023-04-27T21:14:29.583Z,5.85
2023-04-27T21:16:56.426Z,5.76
2023-04-27T21:19:23.553Z,5.66
2023-04-27T21:21:50.198Z,5.83
2023-04-27T21:24:28.204Z,5.80
2023-04-27T21:26:54.880Z,5.61
2023-04-27T21:29:21.491Z,5.61
2023-04-27T21:31:48.077Z,5.55
2023-04-27T21:34:15.075Z,5.59
2023-04-27T21:36:42.017Z,5.60
2023-04-27T21:39:08.894Z,5.60
2023-04-27T21:41:35.844Z,5.73
2023-04-27T21:44:02.574Z,5.72
2023-04-27T21:46:29.247Z,5.72
2023-04-27T21:48:55.881Z,5.68
2023-04-27T21:51:22.499Z,5.65
2023-04-27T21:53:49.101Z,5.61
2023-04-27T21:56:15.876Z,5.63
2023-04-27T21:58:42.504Z,5.63
2023-04-27T22:01:09.168Z,5.57
2023-04-27T22:03:39.153Z,5.58
2023-04-27T22:06:06.368Z,5.55
2023-04-27T22:08:33.125Z,5.48
2023-04-27T22:10:59.675Z,5.49
2023-04-27T22:13:26.418Z,5.41
2023-04-27T22:15:53.178Z,5.41
2023-04-27T22:18:19.988Z,5.37
2023-04-27T22:20:47.385Z,5.32
2023-04-27T22:23:14.028Z,5.31
2023-04-27T22:25:42.875Z,5.26
2023-04-27T22:28:10.440Z,5.27
2023-04-27T22:30:37.160Z,5.20
2023-04-27T22:33:03.925Z,5.21
2023-04-27T22:35:30.988Z,5.24
2023-04-27T22:37:59.262Z,5.28
2023-04-27T22:40:26.255Z,5.31
2023-04-27T22:42:53.842Z,5.27
2023-04-27T22:45:21.391Z,5.21
2023-04-27T22:47:51.960Z,5.22
2023-04-27T22:50:18.692Z,5.17
2023-04-27T22:52:45.461Z,5.18
2023-04-27T22:55:12.720Z,5.20
2023-04-27T22:57:40.317Z,5.18
2023-04-27T23:00:11.846Z,5.09
2023-04-27T23:02:42.816Z,5.08
2023-04-27T23:05:11.024Z,5.06
2023-04-27T23:07:38.247Z,4.99
2023-04-27T23:10:05.982Z,4.99
2023-04-27T23:12:33.280Z,5.00
2023-04-27T23:15:00.058Z,4.94
2023-04-27T23:17:30.579Z,4.90
2023-04-27T23:20:01.748Z,4.96
2023-04-27T23:22:31.185Z,4.97
2023-04-27T23:24:57.802Z,4.90
2023-04-27T23:27:25.093Z,4.99
2023-04-27T23:29:51.888Z,4.95
2023-04-27T23:32:18.867Z,4.97
2023-04-27T23:34:45.472Z,4.93
2023-04-27T23:37:12.190Z,4.93
2023-04-27T23:39:38.854Z,4.90
2023-04-27T23:42:05.588Z,4.97
2023-04-27T23:44:32.180Z,4.98
2023-04-27T23:46:59.293Z,4.98
2023-04-27T23:49:25.925Z,4.88
2023-04-27T23:51:52.848Z,4.88
2023-04-27T23:54:19.550Z,4.84
2023-04-27T23:56:46.200Z,4.79
2023-04-27T23:59:15.044Z,4.75
